Little Bay, New South Wales

12:15 PM AEDT on December 29, 2014 (GMT +1100)
Matraville | Change Station
CLOSE
Current Station
Personal Weather Station
Location: Sydney, NSW
Elevation: 89 ft
Nearby Weather Stations

Elev 89 ft 33.96 °S, 151.23 °E | Updated 1 minute ago

Partly Cloudy
Partly Cloudy
79.9 °F
Feels Like 82 °F
N
6.9
Wind Variable Wind from South
Gusts 10.7 mph

Today
High -- | Low -- °F
--% Chance of Precip.
Yesterday
High -- | Low -- °F
Precip. -- in
5:44 AM 8:08 PM
First Quarter, 53% visible
Pressure 29.74 in
Visibility 6.2 miles
Clouds Few 4000 ft
Heat Index 82 °F
Dew Point 67 °F
Humidity 65%
Rainfall 0.00 in
Snow Depth Not available.
UV 11 out of 12
Pollen Not available.
Air Quality Not available.
Flu Activity Not available.
METAR YSSY 290100Z 05009KT 9999 FEW040 27/16 Q1007 RMK DISTANT TCU TOPS TO S FM0300 04020KT 9999 SCT045

More Conditions Fewer Conditions

Pressure 29.74 in
Visibility 6.2 miles
Clouds Few 4000 ft
Heat Index 82 °F
Dew Point 67 °F
Humidity 65%
Rainfall 0.00 in
Snow Depth Not available.
UV 11 out of 12
Pollen Not available.
Air Quality Not available.
Flu Activity Not available.
METAR YSSY 290100Z 05009KT 9999 FEW040 27/16 Q1007 RMK DISTANT TCU TOPS TO S FM0300 04020KT 9999 SCT045

More Conditions Fewer Conditions

10-Day Weather Forecast

Almanac

Astronomy

Dec. 29, 2014 Rise Set
Actual Time
Civil Twilight
Nautical Twilight
Astronomical Twilight
Moon
Length of Visible Light
Length of Day
Tomorrow will be .
, % of the Moon is Illuminated

Today's Extremes

Country Highs Country Lows

Community

WunderPhotos

Upload Photos

1,781,482 photos uploaded!

WunderBlogs® & News

Nearby

Air Quality

  Air Quality AQ Index Pollutant
Not available.

Snow Depth

Station Depth Elevation

Earthquake Activity

City Distance Mag. Time & Date
Minimum magnitude displayed is 2.5.

Coastal Water Temperatures

Place Temperature

Nearby Weather Stations